Last 7 Days

Kelseyville

Hourly Data | America/Los_Angeles
as of 5/18/21 3:30 PM PDT
Date & Time Temp (°F) RH (%) Dew Pt (°F) Wet Bulb (°F) Wind Dir (°) Wind Spd (mph) Wind Gust (mph) Leaf Wet (mins) Solar Rad (W/m2) ETo Hr (in) BatVolt (V) Latest Rain (In) Daily Rain (In) Daily Min Temp (°F) Daily Max Temp (°F) Daily Leaf Wet Hrs (hrs) Daily ETo (in)
5/18/21 - 1500 77.0 17 28.4 51.6 NW | 311 8.2 19.5 0.0 947 0.029 13.1 0.00 0.00 43.0 77.8 0.0 0.158
5/18/21 - 1400 75.8 19 30.2 51.8 WNW | 303 7.3 18.6 0.0 999 0.030 13.0 0.00 0.00 43.0 77.2 0.0 0.128
5/18/21 - 1300 74.4 27 37.9 53.9 WNW | 287 5.2 17.5 0.0 986 0.028 13.0 0.00 0.00 43.0 76.0 0.0 0.099
5/18/21 - 1200 71.4 35 42.4 54.8 N | 5 4.4 15.1 0.0 913 0.024 13.0 0.00 0.00 43.0 73.5 0.0 0.071
5/18/21 - 1100 68.8 39 42.6 54.1 NW | 310 2.8 10.7 0.0 793 0.020 13.1 0.00 0.00 43.0 70.6 0.0 0.047
5/18/21 - 1000 64.6 46 43.2 53.0 NNE | 16 1.8 6.6 0.0 630 0.015 13.3 0.00 0.00 43.0 67.6 0.0 0.027
5/18/21 - 0900 60.5 50 41.8 50.8 NE | 48 1.4 4.4 0.0 440 0.009 14.3 0.00 0.00 43.0 63.0 0.0 0.013
5/18/21 - 0800 52.6 65 40.9 47.0 S | 183 1.2 4.2 0.0 240 0.004 12.9 0.00 0.00 43.0 56.7 0.0 0.004
5/18/21 - 0700 45.0 80 39.4 42.6 SSW | 194 0.7 2.8 0.0 66 0.000 12.7 0.00 0.00 43.0 54.1 0.0 0.000
5/18/21 - 0600 44.2 81 38.8 42.0 S | 178 0.8 3.5 0.0 1 0.000 12.6 0.00 0.00 43.0 54.1 0.0 0.000
5/18/21 - 0500 46.1 78 39.6 43.3 S | 184 2.0 4.6 0.0 0 0.000 12.6 0.00 0.00 44.3 54.1 0.0 0.000
5/18/21 - 0400 45.5 79 39.5 42.9 S | 179 0.9 3.7 0.0 0 0.000 12.6 0.00 0.00 44.3 54.1 0.0 0.000
5/18/21 - 0300 48.0 75 40.3 44.6 SSW | 201 1.0 3.7 0.0 0 0.000 12.7 0.00 0.00 46.4 54.1 0.0 0.000
5/18/21 - 0200 52.6 66 41.6 47.4 S | 183 1.8 5.7 0.0 0 0.000 12.7 0.00 0.00 49.2 54.1 0.0 0.000
5/18/21 - 0100 53.2 64 41.3 47.5 S | 182 2.2 6.4 0.0 0 0.000 12.7 0.00 0.00 43.8 82.6 0.0 0.239
5/18/21 - 0000 54.8 60 41.2 48.2 SSW | 195 3.1 7.2 0.0 0 0.000 12.7 0.00 0.00 43.8 82.6 0.0 0.239
5/17/21 - 2300 57.8 54 41.1 49.4 SSW | 201 3.8 9.6 0.0 0 0.001 12.7 0.00 0.00 43.8 82.6 0.0 0.239
5/17/21 - 2200 62.1 45 40.6 50.9 WNW | 282 5.9 14.0 0.0 0 0.002 12.8 0.00 0.00 43.8 82.6 0.0 0.239
5/17/21 - 2100 64.6 43 41.8 52.3 W | 270 5.0 14.9 0.0 4 0.002 12.8 0.00 0.00 43.8 82.6 0.0 0.237
5/17/21 - 2000 67.9 44 45.1 55.0 WNW | 285 3.8 14.7 0.0 103 0.003 13.0 0.00 0.00 43.8 82.6 0.0 0.235
5/17/21 - 1900 72.6 35 43.4 55.6 WNW | 283 9.2 21.3 0.0 286 0.011 13.2 0.00 0.00 43.8 82.6 0.0 0.233
5/17/21 - 1800 76.7 26 39.1 55.0 WNW | 292 8.4 18.2 0.0 480 0.017 13.6 0.00 0.00 43.8 82.6 0.0 0.221
5/17/21 - 1700 78.7 24 39.1 55.5 WNW | 293 8.8 17.3 0.0 672 0.023 14.1 0.00 0.00 43.8 82.6 0.0 0.204
5/17/21 - 1600 79.7 29 44.4 57.9 WSW | 256 10.2 23.2 0.0 822 0.027 13.1 0.00 0.00 43.8 82.6 0.0 0.182
5/17/21 - 1500 81.4 26 43.5 57.9 W | 262 7.8 19.5 0.0 936 0.030 13.1 0.00 0.00 43.8 82.6 0.0 0.155
5/17/21 - 1400 79.2 29 44.4 57.8 W | 273 4.9 14.2 0.0 993 0.029 13.2 0.00 0.00 43.8 81.2 0.0 0.125
5/17/21 - 1300 75.2 40 49.5 59.3 W | 266 3.5 12.5 0.0 985 0.027 13.1 0.00 0.00 43.8 77.6 0.0 0.096
5/17/21 - 1200 70.3 46 48.3 57.3 NNE | 14 3.3 8.3 0.0 917 0.024 13.9 0.00 0.00 43.8 73.4 0.0 0.069
5/17/21 - 1100 66.5 52 48.2 56.2 NE | 36 3.9 9.2 0.0 795 0.019 13.2 0.00 0.00 43.8 68.7 0.0 0.046
5/17/21 - 1000 63.3 59 48.9 55.5 NNE | 12 2.2 7.7 0.0 628 0.014 13.1 0.00 0.00 43.8 65.1 0.0 0.026
5/17/21 - 0900 58.6 66 47.4 53.0 ENE | 57 1.3 4.8 0.0 436 0.009 14.1 0.00 0.00 43.8 61.8 0.0 0.012
5/17/21 - 0800 52.6 74 44.6 48.9 SW | 218 0.9 4.2 0.0 236 0.003 13.0 0.00 0.00 43.8 56.1 0.0 0.003
5/17/21 - 0700 45.6 86 41.7 44.1 SSW | 202 0.7 2.4 0.0 64 0.000 12.7 0.00 0.00 43.8 56.1 0.0 0.000
5/17/21 - 0600 44.9 89 42.0 43.8 S | 175 0.8 2.4 0.0 1 0.000 12.6 0.00 0.00 43.8 56.1 0.0 0.000
5/17/21 - 0500 47.7 84 43.0 45.8 S | 179 0.9 3.7 0.0 0 0.000 12.6 0.00 0.00 46.0 56.1 0.0 0.000
5/17/21 - 0400 49.6 82 44.4 47.4 S | 180 1.3 3.7 0.0 0 0.000 12.6 0.00 0.00 47.8 56.1 0.0 0.000
5/17/21 - 0300 51.9 78 45.4 49.1 S | 171 1.8 4.2 0.0 0 0.000 12.7 0.00 0.00 50.3 56.1 0.0 0.000
5/17/21 - 0200 54.2 74 46.2 50.5 S | 184 2.0 4.8 0.0 0 0.000 12.7 0.00 0.00 52.8 56.1 0.0 0.000
5/17/21 - 0100 56.5 72 47.5 52.2 S | 178 3.0 5.9 0.0 0 0.000 12.7 0.00 0.00 46.0 83.7 0.0 0.235
5/17/21 - 0000 57.1 72 48.2 52.8 S | 184 4.1 9.6 0.0 0 0.000 12.7 0.00 0.00 46.0 83.7 0.0 0.235
5/16/21 - 2300 59.6 68 49.2 54.3 SSW | 192 3.5 8.8 0.0 0 0.000 12.7 0.00 0.00 46.0 83.7 0.0 0.235
5/16/21 - 2200 61.9 65 50.2 55.8 S | 185 3.0 7.7 0.0 0 0.000 12.7 0.00 0.00 46.0 83.7 0.0 0.235
5/16/21 - 2100 66.4 56 50.4 57.3 SSW | 205 4.4 10.1 0.0 5 0.001 12.8 0.00 0.00 46.0 83.7 0.0 0.235
5/16/21 - 2000 72.0 47 50.8 59.2 SW | 235 6.6 14.2 0.0 96 0.004 13.0 0.00 0.00 46.0 83.7 0.0 0.234
5/16/21 - 1900 76.5 41 51.3 60.6 WSW | 237 7.5 17.1 0.0 272 0.010 13.2 0.00 0.00 46.0 83.7 0.0 0.230
5/16/21 - 1800 79.3 38 51.7 61.4 WSW | 247 7.6 15.1 0.0 471 0.016 13.4 0.00 0.00 46.0 83.7 0.0 0.219
5/16/21 - 1700 79.4 38 51.7 61.4 SW | 214 9.0 16.0 0.0 656 0.021 13.0 0.00 0.00 46.0 83.7 0.0 0.203
5/16/21 - 1600 80.1 35 49.7 60.5 SW | 233 8.0 16.4 0.0 803 0.025 13.2 0.00 0.00 46.0 83.7 0.0 0.182
5/16/21 - 1500 79.7 35 49.8 60.5 SW | 225 9.3 17.5 0.0 916 0.028 13.1 0.00 0.00 46.0 83.7 0.0 0.157
5/16/21 - 1400 81.7 32 49.2 60.6 W | 271 6.4 15.3 0.0 974 0.030 12.9 0.00 0.00 46.0 83.7 0.0 0.129
5/16/21 - 1300 78.9 38 51.3 61.1 N | 9 4.7 9.0 0.0 969 0.028 12.9 0.00 0.00 46.0 80.6 0.0 0.099
5/16/21 - 1200 74.4 46 52.0 60.4 N | 10 4.3 10.3 0.0 900 0.024 13.6 0.00 0.00 46.0 77.0 0.0 0.071
5/16/21 - 1100 70.8 52 52.2 59.7 NNE | 22 4.5 9.2 0.0 778 0.020 13.0 0.00 0.00 46.0 73.0 0.0 0.047
5/16/21 - 1000 67.3 63 54.3 60.0 NNE | 23 3.9 10.7 0.0 614 0.015 13.1 0.00 0.00 46.0 69.0 0.0 0.027
5/16/21 - 0900 63.1 67 52.1 57.3 ENE | 58 1.0 4.2 0.0 423 0.009 14.1 0.00 0.00 46.0 66.4 0.0 0.012
5/16/21 - 0800 55.2 78 48.4 52.2 SE | 136 0.4 2.6 0.0 224 0.003 13.0 0.00 0.00 46.0 59.9 0.0 0.003
5/16/21 - 0700 47.7 91 45.2 46.9 WSW | 237 0.3 2.2 0.0 60 0.000 12.7 0.00 0.00 46.0 56.0 0.0 0.000
5/16/21 - 0600 47.5 91 45.1 46.8 SSW | 209 0.8 3.7 0.0 1 0.000 12.6 0.00 0.00 46.6 56.0 0.0 0.000
5/16/21 - 0500 49.1 89 45.9 48.1 SW | 220 0.5 2.2 0.0 0 0.000 12.6 0.00 0.00 48.0 56.0 0.0 0.000
5/16/21 - 0400 50.3 89 47.1 49.3 SSW | 198 1.2 4.4 0.0 0 0.000 12.6 0.00 0.00 49.5 56.0 0.0 0.000
5/16/21 - 0300 51.2 86 47.3 49.8 SSE | 165 0.6 2.2 0.0 0 0.000 12.7 0.00 0.00 50.1 56.0 0.0 0.000
5/16/21 - 0200 54.2 82 49.0 52.1 S | 189 0.7 2.8 0.0 0 0.000 12.7 0.00 0.00 52.3 56.0 0.0 0.000
5/16/21 - 0100 57.8 77 50.7 54.5 SSW | 196 1.2 3.9 0.0 0 0.000 12.7 0.00 0.00 42.3 83.1 0.0 0.174
5/16/21 - 0000 60.3 73 51.4 55.9 SSW | 194 2.5 6.6 0.0 0 0.000 12.7 0.00 0.00 42.3 83.1 0.0 0.174
5/15/21 - 2300 61.2 73 52.7 57.1 SSW | 203 2.5 9.9 0.0 0 0.000 12.7 0.00 0.00 42.3 83.1 0.0 0.173
5/15/21 - 2200 60.5 74 52.2 56.5 SW | 230 1.5 5.5 0.0 0 0.000 12.8 0.00 0.00 42.3 83.1 0.0 0.173
5/15/21 - 2100 63.1 71 53.4 58.2 SSW | 198 1.9 5.7 0.0 6 0.000 12.8 0.00 0.00 42.3 83.1 0.0 0.173
5/15/21 - 2000 67.0 60 52.4 58.7 SSW | 213 1.5 4.2 0.0 68 0.001 13.0 0.00 0.00 42.3 83.1 0.0 0.172
5/15/21 - 1900 68.1 57 52.4 59.1 WNW | 292 1.6 3.9 0.0 117 0.003 13.2 0.00 0.00 42.3 83.1 0.0 0.171
5/15/21 - 1800 69.2 52 50.8 58.5 NNW | 333 3.0 7.0 0.0 192 0.006 13.5 0.00 0.00 42.3 83.1 0.0 0.168
5/15/21 - 1700 70.4 50 51.2 59.0 WNW | 295 3.2 9.2 0.0 150 0.006 13.5 0.00 0.00 42.3 83.1 0.0 0.162
5/15/21 - 1600 75.5 40 49.3 59.3 WSW | 245 6.7 16.0 0.0 133 0.009 13.3 0.00 0.00 42.3 83.1 0.0 0.155
5/15/21 - 1500 81.9 28 45.4 58.8 WNW | 294 4.5 12.5 0.0 727 0.023 13.2 0.00 0.00 42.3 83.1 0.0 0.147
5/15/21 - 1400 80.6 27 43.4 57.7 E | 80 3.1 10.5 0.0 992 0.028 12.9 0.00 0.00 42.3 82.1 0.0 0.124
5/15/21 - 1300 77.0 35 47.2 58.6 NE | 35 3.1 9.6 0.0 972 0.027 12.9 0.00 0.00 42.3 79.4 0.0 0.095
5/15/21 - 1200 72.3 46 50.6 59.2 N | 0 4.3 8.1 0.0 903 0.024 13.0 0.00 0.00 42.3 73.7 0.0 0.068
5/15/21 - 1100 67.6 52 49.4 57.1 N | 6 2.5 6.8 0.0 779 0.019 13.2 0.00 0.00 42.3 72.1 0.0 0.044
5/15/21 - 1000 62.5 61 48.9 55.2 NNW | 342 2.9 7.7 0.0 614 0.014 13.2 0.00 0.00 42.3 64.2 0.0 0.025
5/15/21 - 0900 58.2 66 46.8 52.4 NNE | 29 1.6 5.5 0.0 424 0.008 14.2 0.00 0.00 42.3 61.5 0.0 0.012
5/15/21 - 0800 52.0 74 44.1 48.4 S | 170 1.6 5.3 0.0 225 0.003 13.0 0.00 0.00 42.3 55.9 0.0 0.003
5/15/21 - 0700 44.8 89 41.8 43.7 S | 186 1.2 5.0 0.0 58 0.000 12.7 0.00 0.00 42.3 50.3 0.0 0.000
5/15/21 - 0600 43.9 87 40.2 42.4 WNW | 284 0.2 1.5 0.0 1 0.000 12.6 0.00 0.00 42.3 50.3 0.0 0.000
5/15/21 - 0500 45.6 88 42.1 44.3 SSE | 161 0.6 3.1 0.0 0 0.000 12.6 0.00 0.00 44.9 50.3 0.0 0.000
5/15/21 - 0400 48.4 81 42.8 46.0 SSW | 194 1.7 5.0 0.0 0 0.000 12.6 0.00 0.00 46.3 50.3 0.0 0.000
5/15/21 - 0300 49.3 79 43.0 46.6 S | 170 1.7 5.7 0.0 0 0.000 12.7 0.00 0.00 48.8 50.3 0.0 0.000
5/15/21 - 0200 49.8 77 43.0 46.8 S | 172 2.0 5.5 0.0 0 0.000 12.7 0.00 0.00 49.2 50.3 0.0 0.000
5/15/21 - 0100 50.3 76 43.1 47.1 S | 178 2.4 5.7 0.0 0 0.000 12.7 0.00 0.00 44.5 87.6 0.0 0.258
5/15/21 - 0000 52.4 71 43.2 48.1 S | 184 3.5 7.9 0.0 0 0.000 12.7 0.00 0.00 44.5 87.6 0.0 0.258
5/14/21 - 2300 55.3 65 43.8 49.7 S | 172 2.6 6.1 0.0 0 0.000 12.7 0.00 0.00 44.5 87.6 0.0 0.258
5/14/21 - 2200 60.8 54 43.9 51.9 SW | 216 3.4 10.7 0.0 0 0.000 12.8 0.00 0.00 44.5 87.6 0.0 0.258
5/14/21 - 2100 65.0 47 44.5 53.8 W | 268 7.0 16.9 0.0 4 0.002 12.8 0.00 0.00 44.5 87.6 0.0 0.257
5/14/21 - 2000 68.8 43 45.3 55.4 WNW | 293 6.6 16.4 0.0 100 0.005 12.9 0.00 0.00 44.5 87.6 0.0 0.255
5/14/21 - 1900 74.5 33 43.0 56.0 WNW | 300 7.8 18.0 0.0 289 0.011 13.2 0.00 0.00 44.5 87.6 0.0 0.251
5/14/21 - 1800 79.6 20 35.2 54.4 WNW | 292 8.2 16.7 0.0 518 0.019 13.6 0.00 0.00 44.5 87.6 0.0 0.240
5/14/21 - 1700 81.4 18 33.4 54.3 WNW | 292 9.8 20.6 0.0 636 0.024 12.9 0.00 0.00 44.5 87.6 0.0 0.221
5/14/21 - 1600 83.8 16 32.5 54.7 WNW | 293 10.0 22.4 0.0 694 0.027 13.4 0.00 0.00 44.5 87.6 0.0 0.197
5/14/21 - 1500 85.4 23 43.3 58.7 WSW | 256 9.8 20.4 0.0 953 0.033 13.0 0.00 0.00 44.5 87.6 0.0 0.170
5/14/21 - 1400 86.3 19 39.3 57.4 W | 273 7.5 19.7 0.0 1,008 0.033 13.1 0.00 0.00 44.5 87.6 0.0 0.137
5/14/21 - 1300 81.6 29 46.6 59.3 N | 358 4.5 9.2 0.0 928 0.028 13.0 0.00 0.00 44.5 84.0 0.0 0.104
5/14/21 - 1200 78.3 31 45.5 58.0 NNE | 21 3.7 7.9 0.0 924 0.026 12.9 0.00 0.00 44.5 81.0 0.0 0.076
5/14/21 - 1100 74.0 36 45.2 56.8 NNE | 28 3.5 7.7 0.0 799 0.022 13.0 0.00 0.00 44.5 76.7 0.0 0.050
5/14/21 - 1000 69.7 44 46.7 56.3 N | 4 2.5 6.6 0.0 629 0.016 13.3 0.00 0.00 44.5 72.2 0.0 0.028
5/14/21 - 0900 65.2 50 46.0 54.6 NNE | 23 1.0 4.8 0.0 435 0.009 14.0 0.00 0.00 44.5 68.0 0.0 0.013
5/14/21 - 0800 56.0 62 43.0 49.5 S | 187 0.5 2.6 0.0 231 0.003 12.9 0.00 0.00 44.5 61.6 0.0 0.003
5/14/21 - 0700 46.2 80 40.6 43.8 SSW | 205 0.5 2.0 0.0 60 0.000 12.7 0.00 0.00 44.5 53.2 0.0 0.000
5/14/21 - 0600 45.9 80 40.0 43.4 SW | 215 0.7 2.6 0.0 1 0.000 12.6 0.00 0.00 45.1 53.2 0.0 0.000
5/14/21 - 0500 46.7 78 40.2 43.9 SW | 220 0.6 2.6 0.0 0 0.000 12.6 0.00 0.00 46.3 53.2 0.0 0.000
5/14/21 - 0400 47.8 76 40.8 44.8 SSW | 195 0.5 1.8 0.0 0 0.000 12.6 0.00 0.00 46.8 53.2 0.0 0.000
5/14/21 - 0300 50.1 73 41.7 46.3 SSW | 203 1.0 2.8 0.0 0 0.000 12.6 0.00 0.00 49.2 53.2 0.0 0.000
5/14/21 - 0200 52.0 68 41.8 47.2 SW | 228 0.5 2.0 0.0 0 0.000 12.7 0.00 0.00 50.6 53.2 0.0 0.000
5/14/21 - 0100 54.8 62 42.2 48.6 S | 188 0.6 2.4 0.0 0 0.000 12.7 0.00 0.00 42.8 90.9 0.0 0.263
5/14/21 - 0000 59.4 54 42.8 50.8 SSW | 205 0.9 3.1 0.0 0 0.000 12.7 0.00 0.00 42.8 90.9 0.0 0.263
5/13/21 - 2300 64.1 49 44.3 53.3 S | 176 1.5 4.4 0.0 0 0.000 12.7 0.00 0.00 42.8 90.9 0.0 0.263
5/13/21 - 2200 67.6 45 45.5 55.1 S | 175 2.6 5.7 0.0 0 0.000 12.7 0.00 0.00 42.8 90.9 0.0 0.263
5/13/21 - 2100 72.7 37 45.0 56.4 SSW | 192 3.1 8.8 0.0 4 0.001 12.8 0.00 0.00 42.8 90.9 0.0 0.262
5/13/21 - 2000 79.2 29 44.4 57.7 WSW | 237 5.9 11.8 0.0 98 0.006 12.9 0.00 0.00 42.8 90.9 0.0 0.261
5/13/21 - 1900 83.7 24 42.8 58.1 WSW | 252 7.0 14.0 0.0 280 0.012 13.1 0.00 0.00 42.8 90.9 0.0 0.256
5/13/21 - 1800 86.6 21 42.6 58.6 WSW | 251 8.2 17.8 0.0 480 0.019 13.5 0.00 0.00 42.8 90.9 0.0 0.244
5/13/21 - 1700 88.7 20 42.9 59.2 WSW | 258 8.1 15.8 0.0 668 0.025 12.8 0.00 0.00 42.8 90.9 0.0 0.224
5/13/21 - 1600 89.8 21 44.5 60.0 W | 265 7.3 15.6 0.0 825 0.029 13.3 0.00 0.00 42.8 90.9 0.0 0.199
5/13/21 - 1500 89.9 15 35.2 56.9 NW | 310 6.4 14.2 0.0 933 0.032 12.9 0.00 0.00 42.8 90.9 0.0 0.170
5/13/21 - 1400 88.1 16 36.0 56.7 N | 8 5.3 10.1 0.0 1,013 0.033 12.9 0.00 0.00 42.8 89.3 0.0 0.139
5/13/21 - 1300 83.5 23 41.2 57.4 NNE | 18 3.8 8.8 0.0 1,002 0.030 12.8 0.00 0.00 42.8 86.1 0.0 0.106
5/13/21 - 1200 77.9 29 43.0 56.9 N | 7 4.4 9.6 0.0 925 0.026 12.9 0.00 0.00 42.8 81.1 0.0 0.076
5/13/21 - 1100 74.0 37 46.1 57.3 N | 11 3.9 8.3 0.0 798 0.022 13.0 0.00 0.00 42.8 76.8 0.0 0.050
5/13/21 - 1000 69.3 45 46.8 56.2 NNE | 14 2.6 9.2 0.0 629 0.016 13.3 0.00 0.00 42.8 71.8 0.0 0.028
5/13/21 - 0900 64.6 43 41.4 52.1 NNW | 345 0.9 4.4 0.0 434 0.009 14.0 0.00 0.00 42.8 67.8 0.0 0.013
5/13/21 - 0800 54.8 58 40.2 47.7 S | 186 0.7 3.5 0.0 232 0.003 12.9 0.00 0.00 42.8 60.3 0.0 0.003
5/13/21 - 0700 44.9 79 38.9 42.4 SW | 222 0.6 2.6 0.0 58 0.000 12.7 0.00 0.00 42.8 53.2 0.0 0.000
5/13/21 - 0600 44.3 80 38.5 41.9 SW | 215 0.6 2.2 0.0 1 0.000 12.6 0.00 0.00 42.8 53.2 0.0 0.000
5/13/21 - 0500 45.2 79 39.1 42.6 SSW | 194 0.5 2.0 0.0 0 0.000 12.6 0.00 0.00 44.5 53.2 0.0 0.000
5/13/21 - 0400 46.7 77 39.9 43.8 SSW | 199 0.7 2.2 0.0 0 0.000 12.6 0.00 0.00 45.9 53.2 0.0 0.000
5/13/21 - 0300 48.4 74 40.4 44.8 WSW | 237 0.6 2.0 0.0 0 0.000 12.6 0.00 0.00 47.2 53.2 0.0 0.000
5/13/21 - 0200 51.1 69 41.4 46.6 SSW | 195 0.8 2.6 0.0 0 0.000 12.6 0.00 0.00 49.2 53.2 0.0 0.000
5/13/21 - 0100 53.5 60 40.0 47.1 SW | 214 1.1 3.7 0.0 0 0.000 12.7 0.00 0.00 42.7 90.6 0.0 0.262
5/13/21 - 0000 57.9 52 40.4 49.1 SSW | 211 1.3 4.8 0.0 0 0.000 12.7 0.00 0.00 42.7 90.6 0.0 0.262
5/12/21 - 2300 61.4 48 41.8 51.1 SSW | 195 2.1 4.8 0.0 0 0.000 12.7 0.00 0.00 42.7 90.6 0.0 0.262
5/12/21 - 2200 63.7 46 42.5 52.3 S | 171 1.2 3.5 0.0 0 0.000 12.7 0.00 0.00 42.7 90.6 0.0 0.262
5/12/21 - 2100 70.6 35 41.4 54.1 SSW | 194 2.3 4.2 0.0 4 0.000 12.8 0.00 0.00 42.7 90.6 0.0 0.262
5/12/21 - 2000 79.2 24 39.8 55.9 SW | 216 5.2 12.3 0.0 94 0.005 12.8 0.00 0.00 42.7 90.6 0.0 0.262
5/12/21 - 1900 83.7 23 42.2 57.9 SW | 236 7.0 13.8 0.0 277 0.012 13.1 0.00 0.00 42.7 90.6 0.0 0.257
5/12/21 - 1800 86.4 19 39.0 57.3 SSW | 202 7.8 15.1 0.0 481 0.019 13.3 0.00 0.00 42.7 90.6 0.0 0.244
5/12/21 - 1700 87.8 13 30.8 55.1 SSW | 200 7.1 14.7 0.0 677 0.025 13.0 0.00 0.00 42.7 90.6 0.0 0.225
5/12/21 - 1600 88.5 12 30.1 55.1 SSW | 205 6.8 13.8 0.0 837 0.029 13.2 0.00 0.00 42.7 90.6 0.0 0.201
5/12/21 - 1500 89.2 13 31.0 55.5 SW | 235 6.2 14.9 0.0 948 0.032 13.0 0.00 0.00 42.7 90.6 0.0 0.172
5/12/21 - 1400 87.3 16 34.7 56.1 NW | 314 4.5 11.6 0.0 1,002 0.031 12.8 0.00 0.00 42.7 89.3 0.0 0.140
5/12/21 - 1300 84.5 21 40.1 57.2 NNE | 18 6.2 11.8 0.0 991 0.031 13.0 0.00 0.00 42.7 86.6 0.0 0.109
5/12/21 - 1200 80.5 26 42.8 57.4 NNE | 26 5.5 9.9 0.0 915 0.028 13.0 0.00 0.00 42.7 83.3 0.0 0.077
5/12/21 - 1100 74.7 35 45.2 57.0 NNE | 18 3.5 6.8 0.0 796 0.022 13.0 0.00 0.00 42.7 77.8 0.0 0.050
5/12/21 - 1000 70.5 36 42.3 54.5 N | 6 2.0 6.1 0.0 628 0.016 13.2 0.00 0.00 42.7 72.2 0.0 0.028
5/12/21 - 0900 64.8 40 39.9 51.5 SE | 130 0.6 2.4 0.0 434 0.009 14.2 0.00 0.00 42.7 68.9 0.0 0.012
5/12/21 - 0800 53.8 56 38.3 46.4 SSW | 206 0.7 2.6 0.0 230 0.003 12.9 0.00 0.00 42.7 59.4 0.0 0.003
5/12/21 - 0700 44.5 74 36.6 41.1 SSW | 208 0.5 2.0 0.0 57 0.000 12.7 0.00 0.00 42.7 51.7 0.0 0.000
5/12/21 - 0600 43.9 74 36.1 40.6 S | 174 0.9 2.6 0.0 1 0.000 12.6 0.00 0.00 42.7 51.7 0.0 0.000
5/12/21 - 0500 44.8 73 36.8 41.4 SSW | 205 0.4 2.2 0.0 0 0.000 12.6 0.00 0.00 43.8 51.7 0.0 0.000
5/12/21 - 0400 46.2 68 36.2 41.8 S | 180 0.5 1.8 0.0 0 0.000 12.6 0.00 0.00 44.7 51.7 0.0 0.000
5/12/21 - 0300 48.3 64 36.5 43.0 SSW | 194 0.8 2.0 0.0 0 0.000 12.7 0.00 0.00 47.7 51.7 0.0 0.000
5/12/21 - 0200 50.2 58 35.8 43.6 SSW | 208 0.7 2.2 0.0 0 0.000 12.7 0.00 0.00 49.2 51.7 0.0 0.000
5/12/21 - 0100 52.6 53 35.8 44.8 WSW | 250 0.7 2.8 0.0 0 0.000 12.7 0.00 0.00 41.3 89.6 0.0 0.260
5/12/21 - 0000 55.9 42 33.3 45.3 SW | 225 0.3 2.0 0.0 0 0.000 12.7 0.00 0.00 41.3 89.6 0.0 0.260
5/11/21 - 2300 58.9 39 34.2 47.0 S | 184 1.8 5.0 0.0 0 0.000 12.7 0.00 0.00 41.3 89.6 0.0 0.260
5/11/21 - 2200 64.1 32 33.1 48.6 SSE | 162 0.6 3.1 0.0 0 0.000 12.8 0.00 0.00 41.3 89.6 0.0 0.260
5/11/21 - 2100 72.6 22 31.2 51.0 SSW | 200 3.4 8.1 0.0 3 0.002 12.8 0.00 0.00 41.3 89.6 0.0 0.260
5/11/21 - 2000 79.5 18 31.8 53.3 SW | 226 3.7 10.3 0.0 93 0.003 12.9 0.00 0.00 41.3 89.6 0.0 0.258
5/11/21 - 1900 83.3 16 32.2 54.4 SW | 236 6.8 16.2 0.0 279 0.012 13.2 0.00 0.00 41.3 89.6 0.0 0.255
5/11/21 - 1800 86.0 15 33.5 55.4 SW | 231 8.5 18.6 0.0 482 0.020 13.6 0.00 0.00 41.3 89.6 0.0 0.242
5/11/21 - 1700 88.5 15 35.5 56.6 WSW | 250 5.5 15.3 0.0 671 0.023 13.9 0.00 0.00 41.3 89.6 0.0 0.222
5/11/21 - 1600 87.8 15 34.4 56.1 NE | 37 6.5 12.9 0.0 825 0.028 13.3 0.00 0.00 41.3 89.0 0.0 0.199
Max 89.9 91 54.3 61.4 - 10.2 23.2 0.0 1,013 0.033 14.3 0.00 0.00 52.8 90.9 0.0 0.263
Avg 65.0 51 42.9 52.4 - 3.4 8.5 0.0 335 0.010 13.0 0.00 - - - - -
Min 43.9 12 28.4 40.6 - 0.2 1.5 0.0 0 0.000 12.6 0.00 0.00 41.3 50.3 0.0 0.000
Total - - - - - - - - - 1.676 - 0.00 - - - - -